TimeEST,TemperatureF,Dew PointF,Humidity,Sea Level PressureIn,VisibilityMPH,Wind Direction,Wind SpeedMPH,Gust SpeedMPH,PrecipitationIn,Events,Conditions,WindDirDegrees,DateUTC
12:51 AM,30.0,23.0,75,29.94,10.0,South,8.1,-,N/A,,Overcast,180,2013-02-13 05:51:00
1:51 AM,30.0,24.1,79,29.93,10.0,South,4.6,-,N/A,,Overcast,190,2013-02-13 06:51:00
2:51 AM,30.0,23.0,75,29.91,10.0,South,3.5,-,N/A,,Overcast,180,2013-02-13 07:51:00
3:51 AM,30.0,23.0,75,29.89,10.0,South,3.5,-,N/A,,Overcast,190,2013-02-13 08:51:00
4:51 AM,30.0,24.1,79,29.89,10.0,South,3.5,-,N/A,,Overcast,190,2013-02-13 09:51:00
5:51 AM,30.0,24.1,79,29.88,10.0,Calm,Calm,-,N/A,,Overcast,0,2013-02-13 10:51:00
6:51 AM,30.0,24.1,79,29.87,10.0,Calm,Calm,-,N/A,,Overcast,0,2013-02-13 11:51:00
7:51 AM,30.0,24.1,79,29.87,8.0,Calm,Calm,-,N/A,,Overcast,0,2013-02-13 12:51:00
8:51 AM,32.0,23.0,69,29.86,9.0,Calm,Calm,-,N/A,,Overcast,0,2013-02-13 13:51:00
9:51 AM,32.0,24.1,73,29.84,10.0,Calm,Calm,-,N/A,,Overcast,0,2013-02-13 14:51:00
10:51 AM,33.1,21.9,64,29.81,10.0,Calm,Calm,-,N/A,,Overcast,0,2013-02-13 15:51:00
11:12 AM,33.8,23.0,65,29.80,10.0,Calm,Calm,-,N/A,,Scattered Clouds,0,2013-02-13 16:12:00
11:51 AM,35.1,24.1,64,29.81,10.0,NNW,3.5,-,N/A,,Clear,340,2013-02-13 16:51:00
12:51 PM,34.0,24.1,67,29.78,10.0,North,6.9,-,N/A,,Clear,360,2013-02-13 17:51:00
1:51 PM,34.0,24.1,67,29.77,10.0,NNW,6.9,-,N/A,,Clear,330,2013-02-13 18:51:00
2:51 PM,32.0,23.0,69,29.77,10.0,North,6.9,-,N/A,,Clear,350,2013-02-13 19:51:00
3:51 PM,32.0,24.1,73,29.77,10.0,North,5.8,-,N/A,,Partly Cloudy,350,2013-02-13 20:51:00
4:28 PM,30.2,23.0,75,29.74,10.0,Variable,4.6,-,N/A,,Mostly Cloudy,0,2013-02-13 21:28:00
4:51 PM,30.9,23.0,72,29.77,10.0,NW,5.8,-,N/A,,Overcast,320,2013-02-13 21:51:00
5:51 PM,30.0,23.0,75,29.78,10.0,WNW,4.6,-,N/A,,Overcast,300,2013-02-13 22:51:00
6:31 PM,28.4,23.0,80,29.76,10.0,WNW,4.6,-,N/A,,Scattered Clouds,290,2013-02-13 23:31:00
6:51 PM,28.9,23.0,78,29.79,10.0,WNW,4.6,-,N/A,,Clear,290,2013-02-13 23:51:00
7:51 PM,28.0,23.0,81,29.81,8.0,Calm,Calm,-,N/A,,Clear,0,2013-02-14 00:51:00
8:51 PM,27.0,21.9,81,29.82,7.0,SW,3.5,-,N/A,,Partly Cloudy,220,2013-02-14 01:51:00
9:10 PM,28.4,23.0,80,29.80,8.0,SW,3.5,-,N/A,,Mostly Cloudy,230,2013-02-14 02:10:00
9:51 PM,28.0,23.0,81,29.83,9.0,SW,4.6,-,N/A,,Overcast,230,2013-02-14 02:51:00
10:51 PM,28.0,21.9,78,29.84,10.0,SW,8.1,-,N/A,,Overcast,230,2013-02-14 03:51:00
11:51 PM,27.0,21.9,81,29.86,10.0,WSW,6.9,-,N/A,,Overcast,240,2013-02-14 04:51:00